Lincoln, Alabama
Current Conditions -  °F | °C
As of 7:55 AM on Wednesday 26 Nov 2014 (Local Time) from KASN Reporting Station
Clear Clear  
Wind Chill: 42°   Ceiling: Unl
Heat Index: 42°   Visibility: 10mi
Dew Point: 31°   Wind: 0mph
Humidity: 65%   Direction: NA
Pressure: 30.16"   Gusts: NA
Location:  33.61°N, 86.12°W
Report Text: KASN 261355Z AUTO 00000KT 10SM CLR 05/M01 A3016 RMK AO2 T00541007
Loading
Personal Weather Stations






























Interactive Weather Map New forecast layout! Learn more

10-Day Weather Forecast

Advertisements
Track Severe Weather on mobile